Terminal Aerodrome Forecast
Issued by NWS Charleston, SC

Home | Current Version | Previous Version | Text Only | Print | Product List | Glossary On
Versions: 1 2 3 4 5 6 7 8 9 10 11 12 13 14 15 16 17 18 19 20 21 22 23 24 25 26 27
000
FTUS42 KCHS 312300
TAFSAV
TAF
KSAV 312322Z 0100/0124 VRB04KT P6SM VCSH FEW025 BKN080
     FM010200 VRB04KT P6SM FEW025 SCT060 BKN100
      TEMPO 0109/0113 5SM BR SCT012 BKN025
     FM011500 02006KT P6SM SCT025 BKN040
     FM011900 08008KT P6SM SCT025 BKN040=

USA.gov is the U.S. government's official web portal to all federal, state and local government web resources and services.